Wetterdaten: Woche 13.07.20 - 19.07.20 (KW29)
Datum Zeit Temp. Auen Feucht Auen Luftdruck Regen Richtung Windben
13.07.2020 00:00 10,7 C 83 % 1024,4 hPa 0,0 mm N-NW 0,0 km/h (0 Bft)
13.07.2020 01:00 9,9 C 85 % 1024,2 hPa 0,0 mm N-NW 0,0 km/h (0 Bft)
13.07.2020 02:00 9,1 C 86 % 1024,0 hPa 0,0 mm N-NW 0,0 km/h (0 Bft)
13.07.2020 03:00 8,5 C 87 % 1023,7 hPa 0,0 mm N-NW 0,0 km/h (0 Bft)
13.07.2020 04:00 8,1 C 88 % 1023,5 hPa 0,0 mm N-NW 0,0 km/h (0 Bft)
13.07.2020 05:00 7,7 C 89 % 1023,3 hPa 0,0 mm N-NW 0,0 km/h (0 Bft)
13.07.2020 06:00 9,1 C 90 % 1023,2 hPa 0,0 mm N-NW 0,0 km/h (0 Bft)
13.07.2020 07:00 12,8 C 89 % 1023,2 hPa 0,0 mm O 6,8 km/h (2 Bft)
13.07.2020 08:00 14,6 C 83 % 1023,0 hPa 0,0 mm O 10,5 km/h (2 Bft)
13.07.2020 09:00 16,7 C 75 % 1022,7 hPa 0,0 mm O-SO 12,4 km/h (3 Bft)
13.07.2020 10:00 18,4 C 67 % 1022,2 hPa 0,0 mm O 14,0 km/h (3 Bft)
13.07.2020 11:00 19,4 C 64 % 1021,6 hPa 0,0 mm O-SO 15,2 km/h (3 Bft)
13.07.2020 12:00 20,1 C 61 % 1021,2 hPa 0,0 mm O-SO 17,0 km/h (3 Bft)
13.07.2020 13:00 20,6 C 60 % 1020,6 hPa 0,0 mm O-NO 18,0 km/h (3 Bft)
13.07.2020 14:00 20,8 C 57 % 1020,1 hPa 0,0 mm O-NO 16,2 km/h (3 Bft)
13.07.2020 15:00 21,0 C 57 % 1019,6 hPa 0,0 mm O 15,7 km/h (3 Bft)
13.07.2020 16:00 20,9 C 55 % 1019,1 hPa 0,0 mm O-SO 15,0 km/h (3 Bft)
13.07.2020 17:00 20,8 C 57 % 1018,7 hPa 0,0 mm O-NO 15,0 km/h (3 Bft)
13.07.2020 18:00 20,3 C 57 % 1018,2 hPa 0,0 mm O-NO 13,2 km/h (3 Bft)
13.07.2020 19:00 19,5 C 58 % 1018,0 hPa 0,0 mm O-NO 11,7 km/h (2 Bft)
13.07.2020 20:00 18,2 C 61 % 1018,3 hPa 0,0 mm SO 7,5 km/h (2 Bft)
13.07.2020 21:00 16,6 C 66 % 1018,6 hPa 0,0 mm SO 0,4 km/h (0 Bft)
13.07.2020 22:00 14,7 C 73 % 1018,6 hPa 0,0 mm S-SW 2,3 km/h (1 Bft)
13.07.2020 23:00 13,1 C 78 % 1018,5 hPa 0,0 mm S-SW 2,0 km/h (1 Bft)
14.07.2020 00:00 11,9 C 81 % 1018,3 hPa 0,0 mm S-SW 0,0 km/h (0 Bft)
14.07.2020 01:00 11,0 C 83 % 1018,2 hPa 0,0 mm S-SW 0,1 km/h (0 Bft)
14.07.2020 02:00 10,2 C 85 % 1018,0 hPa 0,0 mm S-SW 0,1 km/h (0 Bft)
14.07.2020 03:00 9,7 C 86 % 1017,7 hPa 0,0 mm S-SW 0,0 km/h (0 Bft)
14.07.2020 04:00 9,2 C 87 % 1017,4 hPa 0,0 mm S-SW 0,0 km/h (0 Bft)
14.07.2020 05:00 8,8 C 88 % 1017,2 hPa 0,0 mm S-SW 0,0 km/h (0 Bft)
14.07.2020 06:00 9,4 C 89 % 1017,2 hPa 0,0 mm S-SW 1,1 km/h (0 Bft)
14.07.2020 07:00 12,5 C 89 % 1017,1 hPa 0,0 mm S-SW 0,7 km/h (0 Bft)
14.07.2020 08:00 14,7 C 85 % 1016,6 hPa 0,0 mm SO 3,3 km/h (1 Bft)
14.07.2020 09:00 17,2 C 78 % 1016,2 hPa 0,0 mm SO 3,5 km/h (1 Bft)
14.07.2020 10:00 20,5 C 64 % 1015,8 hPa 0,0 mm W 6,6 km/h (2 Bft)
14.07.2020 11:00 22,5 C 56 % 1015,5 hPa 0,0 mm W 10,1 km/h (2 Bft)
14.07.2020 12:00 23,0 C 54 % 1015,0 hPa 0,0 mm W 11,3 km/h (2 Bft)
14.07.2020 13:00 22,8 C 54 % 1014,5 hPa 0,0 mm W 10,9 km/h (2 Bft)
14.07.2020 14:00 23,2 C 54 % 1013,9 hPa 0,0 mm W 13,4 km/h (3 Bft)
14.07.2020 15:00 23,6 C 50 % 1013,5 hPa 0,0 mm W 14,8 km/h (3 Bft)
14.07.2020 16:00 23,3 C 50 % 1013,2 hPa 0,0 mm W 12,4 km/h (3 Bft)
14.07.2020 17:00 23,0 C 49 % 1013,1 hPa 0,0 mm W 11,8 km/h (2 Bft)
14.07.2020 18:00 22,2 C 49 % 1012,9 hPa 0,0 mm W 7,6 km/h (2 Bft)
14.07.2020 19:00 21,2 C 55 % 1012,7 hPa 0,0 mm W 4,0 km/h (1 Bft)
14.07.2020 20:00 19,7 C 65 % 1012,7 hPa 0,0 mm W 0,1 km/h (0 Bft)
14.07.2020 21:00 17,6 C 70 % 1012,9 hPa 0,0 mm W 1,9 km/h (1 Bft)
14.07.2020 22:00 15,6 C 76 % 1013,0 hPa 0,0 mm W 4,3 km/h (1 Bft)
14.07.2020 23:00 14,3 C 79 % 1013,1 hPa 0,0 mm W 4,4 km/h (1 Bft)
15.07.2020 00:00 13,4 C 82 % 1013,2 hPa 0,0 mm W 4,4 km/h (1 Bft)
15.07.2020 01:00 12,8 C 84 % 1013,2 hPa 0,0 mm W 4,1 km/h (1 Bft)
15.07.2020 02:00 12,2 C 84 % 1012,9 hPa 0,0 mm W 2,1 km/h (1 Bft)
15.07.2020 03:00 11,6 C 86 % 1012,6 hPa 0,0 mm W 0,0 km/h (0 Bft)
15.07.2020 04:00 11,1 C 86 % 1012,3 hPa 0,0 mm W 0,0 km/h (0 Bft)
15.07.2020 05:00 10,9 C 87 % 1012,1 hPa 0,0 mm W 0,9 km/h (0 Bft)
15.07.2020 06:00 11,8 C 89 % 1012,3 hPa 0,0 mm W 4,4 km/h (1 Bft)
15.07.2020 07:00 14,7 C 86 % 1012,0 hPa 0,0 mm O-SO 5,2 km/h (1 Bft)
15.07.2020 08:00 15,7 C 84 % 1011,9 hPa 0,0 mm SO 1,7 km/h (1 Bft)
15.07.2020 09:00 18,5 C 76 % 1011,7 hPa 0,0 mm O 5,2 km/h (1 Bft)
15.07.2020 10:00 20,5 C 71 % 1012,0 hPa 0,0 mm SO 4,5 km/h (1 Bft)
15.07.2020 11:00 23,3 C 59 % 1012,4 hPa 0,0 mm W 21,4 km/h (4 Bft)
15.07.2020 12:00 21,1 C 61 % 1013,1 hPa 0,0 mm W 19,8 km/h (4 Bft)
15.07.2020 13:00 21,6 C 64 % 1013,0 hPa 0,0 mm W 13,4 km/h (3 Bft)
15.07.2020 14:00 21,7 C 61 % 1012,8 hPa 0,0 mm W 15,8 km/h (3 Bft)
15.07.2020 15:00 21,7 C 59 % 1012,8 hPa 0,0 mm W 11,0 km/h (2 Bft)
15.07.2020 16:00 21,5 C 61 % 1012,9 hPa 0,0 mm W 12,8 km/h (3 Bft)
15.07.2020 17:00 21,1 C 60 % 1012,8 hPa 0,0 mm W 9,1 km/h (2 Bft)
15.07.2020 18:00 19,5 C 70 % 1012,8 hPa 0,0 mm W 5,9 km/h (2 Bft)
15.07.2020 19:00 18,6 C 78 % 1013,5 hPa 0,0 mm W 7,8 km/h (2 Bft)
15.07.2020 20:00 17,9 C 80 % 1013,7 hPa 0,0 mm W 3,6 km/h (1 Bft)
15.07.2020 21:00 17,0 C 82 % 1014,7 hPa 0,8 mm W 10,3 km/h (2 Bft)
15.07.2020 22:00 16,0 C 84 % 1015,2 hPa 0,6 mm W-NW 2,1 km/h (1 Bft)
15.07.2020 23:00 15,2 C 87 % 1015,3 hPa 0,0 mm W-NW 2,1 km/h (1 Bft)
16.07.2020 00:00 15,0 C 88 % 1015,6 hPa 0,4 mm W 6,0 km/h (2 Bft)
16.07.2020 01:00 14,6 C 89 % 1015,8 hPa 0,2 mm W 4,7 km/h (1 Bft)
16.07.2020 02:00 14,4 C 90 % 1015,8 hPa 0,0 mm W 7,9 km/h (2 Bft)
16.07.2020 03:00 14,3 C 90 % 1015,7 hPa 0,0 mm W 6,3 km/h (2 Bft)
16.07.2020 04:00 14,1 C 91 % 1015,7 hPa 0,2 mm W 2,7 km/h (1 Bft)
16.07.2020 05:00 13,9 C 91 % 1015,8 hPa 0,0 mm W 0,8 km/h (0 Bft)
16.07.2020 06:00 13,7 C 91 % 1016,1 hPa 0,0 mm W 2,0 km/h (1 Bft)
16.07.2020 07:00 14,3 C 91 % 1016,2 hPa 0,0 mm W 1,2 km/h (1 Bft)
16.07.2020 08:00 15,8 C 88 % 1016,3 hPa 0,0 mm W 7,0 km/h (2 Bft)
16.07.2020 09:00 16,5 C 83 % 1016,2 hPa 0,0 mm W 11,0 km/h (2 Bft)
16.07.2020 10:00 16,7 C 83 % 1016,3 hPa 0,0 mm W 11,3 km/h (2 Bft)
16.07.2020 11:00 17,8 C 80 % 1016,3 hPa 0,0 mm W 8,4 km/h (2 Bft)
16.07.2020 12:00 19,0 C 74 % 1016,1 hPa 0,0 mm W 13,4 km/h (3 Bft)
16.07.2020 13:00 19,9 C 70 % 1015,8 hPa 0,0 mm W 16,9 km/h (3 Bft)
16.07.2020 14:00 19,8 C 71 % 1015,6 hPa 0,0 mm W 16,9 km/h (3 Bft)
16.07.2020 15:00 18,9 C 75 % 1015,5 hPa 0,0 mm W 18,0 km/h (3 Bft)
16.07.2020 16:00 16,8 C 86 % 1015,8 hPa 0,8 mm W 16,6 km/h (3 Bft)
16.07.2020 17:00 16,3 C 88 % 1016,0 hPa 4,2 mm W 14,4 km/h (3 Bft)
16.07.2020 18:00 15,2 C 88 % 1016,5 hPa 2,2 mm W 9,9 km/h (2 Bft)
16.07.2020 19:00 14,6 C 89 % 1016,6 hPa 2,0 mm W 7,1 km/h (2 Bft)
16.07.2020 20:00 14,3 C 90 % 1016,8 hPa 2,2 mm W 8,3 km/h (2 Bft)
16.07.2020 21:00 14,0 C 91 % 1016,9 hPa 1,2 mm W 6,2 km/h (2 Bft)
16.07.2020 22:00 13,9 C 91 % 1017,1 hPa 1,8 mm W 4,3 km/h (1 Bft)
16.07.2020 23:00 13,6 C 91 % 1017,1 hPa 1,8 mm W 5,6 km/h (1 Bft)
17.07.2020 00:00 13,4 C 91 % 1017,0 hPa 2,4 mm W 5,9 km/h (2 Bft)
17.07.2020 01:00 13,3 C 92 % 1016,7 hPa 2,8 mm W 12,9 km/h (3 Bft)
17.07.2020 02:00 13,2 C 92 % 1016,7 hPa 5,0 mm W 8,0 km/h (2 Bft)
17.07.2020 03:00 12,9 C 92 % 1016,9 hPa 1,2 mm W 8,0 km/h (2 Bft)
17.07.2020 04:00 12,6 C 92 % 1016,9 hPa 1,0 mm W 4,1 km/h (1 Bft)
17.07.2020 05:00 12,5 C 92 % 1017,0 hPa 0,2 mm W 1,7 km/h (1 Bft)
17.07.2020 06:00 12,5 C 92 % 1017,3 hPa 0,8 mm W 1,2 km/h (1 Bft)
17.07.2020 07:00 13,0 C 92 % 1017,5 hPa 0,2 mm W 1,9 km/h (1 Bft)
17.07.2020 08:00 13,6 C 92 % 1018,0 hPa 0,0 mm W 4,8 km/h (1 Bft)
17.07.2020 09:00 15,0 C 91 % 1018,1 hPa 0,0 mm W 7,2 km/h (2 Bft)
17.07.2020 10:00 16,3 C 87 % 1018,2 hPa 0,0 mm W 8,9 km/h (2 Bft)
17.07.2020 11:00 16,6 C 84 % 1018,3 hPa 0,0 mm W 9,8 km/h (2 Bft)
17.07.2020 12:00 18,2 C 80 % 1018,1 hPa 0,0 mm W 13,3 km/h (3 Bft)
17.07.2020 13:00 19,4 C 74 % 1017,9 hPa 0,0 mm W 14,2 km/h (3 Bft)
17.07.2020 14:00 20,6 C 68 % 1017,5 hPa 0,0 mm W 15,7 km/h (3 Bft)
17.07.2020 15:00 19,5 C 68 % 1017,5 hPa 0,0 mm W 14,2 km/h (3 Bft)
17.07.2020 16:00 15,6 C 81 % 1018,3 hPa 0,0 mm O-NO 19,2 km/h (3 Bft)
17.07.2020 17:00 15,1 C 83 % 1018,6 hPa 0,2 mm O-NO 13,4 km/h (3 Bft)
17.07.2020 18:00 14,6 C 87 % 1018,7 hPa 0,0 mm O-NO 7,2 km/h (2 Bft)
17.07.2020 19:00 14,5 C 88 % 1019,3 hPa 1,4 mm O 6,6 km/h (2 Bft)
17.07.2020 20:00 13,8 C 89 % 1019,4 hPa 0,0 mm N 0,7 km/h (0 Bft)
17.07.2020 21:00 13,3 C 90 % 1019,8 hPa 0,0 mm N 0,5 km/h (0 Bft)
17.07.2020 22:00 13,1 C 90 % 1020,0 hPa 0,0 mm NW 0,9 km/h (0 Bft)
17.07.2020 23:00 12,8 C 90 % 1020,1 hPa 0,0 mm NW 2,9 km/h (1 Bft)
18.07.2020 00:00 12,5 C 91 % 1020,1 hPa 0,0 mm W-NW 3,6 km/h (1 Bft)
18.07.2020 01:00 12,3 C 91 % 1019,9 hPa 0,0 mm W-NW 2,9 km/h (1 Bft)
18.07.2020 02:00 12,1 C 91 % 1019,6 hPa 0,0 mm W-NW 0,5 km/h (0 Bft)
18.07.2020 03:00 12,1 C 91 % 1019,5 hPa 2,8 mm W-NW 2,0 km/h (1 Bft)
18.07.2020 04:00 12,0 C 92 % 1019,5 hPa 5,0 mm O-SO 3,2 km/h (1 Bft)
18.07.2020 05:00 11,8 C 92 % 1019,3 hPa 0,8 mm O-SO 0,5 km/h (0 Bft)
18.07.2020 06:00 11,9 C 92 % 1019,1 hPa 0,2 mm W-NW 3,7 km/h (1 Bft)
18.07.2020 07:00 12,8 C 92 % 1019,2 hPa 0,0 mm W-NW 2,8 km/h (1 Bft)
18.07.2020 08:00 13,3 C 92 % 1019,2 hPa 0,2 mm W-NW 3,7 km/h (1 Bft)
18.07.2020 09:00 14,2 C 92 % 1019,1 hPa 0,0 mm W-NW 5,6 km/h (1 Bft)
18.07.2020 10:00 14,9 C 90 % 1019,1 hPa 0,0 mm W 9,3 km/h (2 Bft)
18.07.2020 11:00 15,0 C 89 % 1019,2 hPa 0,0 mm W 9,7 km/h (2 Bft)
18.07.2020 12:00 15,3 C 89 % 1019,1 hPa 0,0 mm W 7,1 km/h (2 Bft)
18.07.2020 13:00 15,0 C 90 % 1019,0 hPa 0,2 mm W 5,9 km/h (2 Bft)
18.07.2020 14:00 14,8 C 91 % 1018,9 hPa 2,0 mm W 5,2 km/h (1 Bft)
18.07.2020 15:00 14,6 C 91 % 1019,2 hPa 2,4 mm W 5,1 km/h (1 Bft)
18.07.2020 16:00 14,7 C 91 % 1019,1 hPa 0,6 mm W 2,4 km/h (1 Bft)
18.07.2020 17:00 14,8 C 91 % 1018,9 hPa 1,0 mm W 7,8 km/h (2 Bft)
18.07.2020 18:00 14,7 C 91 % 1018,7 hPa 0,4 mm W 7,3 km/h (2 Bft)
18.07.2020 19:00 14,1 C 91 % 1018,7 hPa 1,4 mm W 7,1 km/h (2 Bft)
18.07.2020 20:00 13,5 C 91 % 1018,9 hPa 2,6 mm W 7,2 km/h (2 Bft)
18.07.2020 21:00 13,2 C 92 % 1019,2 hPa 1,6 mm W 2,9 km/h (1 Bft)
18.07.2020 22:00 13,0 C 92 % 1019,7 hPa 1,8 mm W 0,5 km/h (0 Bft)
18.07.2020 23:00 12,9 C 92 % 1019,8 hPa 1,2 mm W 1,1 km/h (0 Bft)
19.07.2020 00:00 12,9 C 92 % 1019,5 hPa 0,0 mm W 0,4 km/h (0 Bft)
19.07.2020 01:00 13,0 C 92 % 1019,0 hPa 0,0 mm W 0,1 km/h (0 Bft)
19.07.2020 02:00 13,1 C 92 % 1018,6 hPa 0,0 mm W 0,1 km/h (0 Bft)
19.07.2020 03:00 13,2 C 92 % 1018,4 hPa 0,0 mm W 0,1 km/h (0 Bft)
19.07.2020 04:00 13,3 C 92 % 1018,1 hPa 0,0 mm W 0,3 km/h (0 Bft)
19.07.2020 05:00 13,3 C 92 % 1017,9 hPa 0,0 mm W 0,0 km/h (0 Bft)
19.07.2020 06:00 13,4 C 93 % 1017,7 hPa 0,0 mm W 0,3 km/h (0 Bft)
19.07.2020 07:00 13,7 C 93 % 1017,8 hPa 0,0 mm W 0,0 km/h (0 Bft)
19.07.2020 08:00 14,5 C 93 % 1018,0 hPa 0,0 mm W 0,0 km/h (0 Bft)
19.07.2020 09:00 15,4 C 92 % 1018,1 hPa 0,0 mm W 0,0 km/h (0 Bft)
19.07.2020 10:00 16,5 C 90 % 1017,9 hPa 0,0 mm W 4,0 km/h (1 Bft)
19.07.2020 11:00 18,6 C 85 % 1017,7 hPa 0,0 mm O 4,9 km/h (1 Bft)
19.07.2020 12:00 21,0 C 76 % 1017,3 hPa 0,0 mm W 9,1 km/h (2 Bft)
19.07.2020 13:00 22,0 C 70 % 1017,1 hPa 0,0 mm W 8,3 km/h (2 Bft)
19.07.2020 14:00 22,4 C 68 % 1016,5 hPa 0,0 mm W 8,3 km/h (2 Bft)
19.07.2020 15:00 23,5 C 65 % 1016,0 hPa 0,0 mm W 11,1 km/h (2 Bft)
19.07.2020 16:00 23,7 C 61 % 1015,8 hPa 0,0 mm W 11,0 km/h (2 Bft)
19.07.2020 17:00 23,5 C 62 % 1015,3 hPa 0,0 mm W 9,1 km/h (2 Bft)
19.07.2020 18:00 22,7 C 65 % 1015,1 hPa 0,0 mm W 5,3 km/h (1 Bft)
19.07.2020 19:00 21,7 C 71 % 1015,3 hPa 0,0 mm SO 0,8 km/h (0 Bft)
19.07.2020 20:00 20,5 C 76 % 1015,4 hPa 0,0 mm SO 0,1 km/h (0 Bft)
19.07.2020 21:00 18,5 C 80 % 1015,7 hPa 0,0 mm SO 0,9 km/h (0 Bft)
19.07.2020 22:00 16,8 C 83 % 1016,1 hPa 0,0 mm W-SW 4,5 km/h (1 Bft)
19.07.2020 23:00 15,9 C 86 % 1016,3 hPa 0,0 mm W-SW 1,7 km/h (1 Bft)
Min-Datum _ 13.07.20 14.07.20 15.07.20 - - 13.07.20
_ Min-Zeit 05:40 15:35 09:20 - - 00:00
Minimum _ 7,6 C 47 % 1011,6 hPa - - 0,0 km/h (0 Bft)
Max-Datum _ 15.07.20 17.07.20 13.07.20 17.07.20 - 15.07.20
_ Max-Zeit 11:05 07:35 00:00 02:15 - 12:05
Maximum _ 24,1 C 93 % 1024,5 hPa 5,0 mm - 29,0 km/h
W (5 Bft)
Durchschnitt _ 15,9 C 80 % 1017,1 hPa #57,8 mm W 6,3 km/h (2 Bft)